Minneapolis, Minnesota
Traffic Map
Current Weather Conditions
Minneapolis, Minnesota
Overcast Moderate Rain
Overcast
41°
Feels Like: 35°
Wind Chill: 35° Ceiling: 800
Heat Index: 41° Visibility: 1.2mi
Dew Point: 41° Wind: 9mph
Humidity: 100% Direction: 90° (E)
Pressure: 29.73in Gusts: 0mph
Raw Report DataKMSP 241718Z 09008KT 1 1/4SM R30L/5500VP6000FT RA BR OVC008 05/05 A2973 RMK AO2 P0005 T00500050
Traffic Incident Summary
Active as of:
Severity:
Category:
InformationThere was an issue retrieving the traffic information for this location. Please try a different location or try again shortly.
Advertisements
At Last! Intellicast now available for iPhone and Android